sensor_id;sensor_type;location;lat;lon;timestamp;pressure;altitude;pressure_sealevel;temperature;humidity
40940;BME280;26666;50.156;7.700;2022-10-13T00:04:45;101045.22;;;10.99;100.00
40940;BME280;26666;50.156;7.700;2022-10-13T00:09:47;101039.31;;;10.96;100.00
40940;BME280;26666;50.156;7.700;2022-10-13T00:14:48;101037.53;;;11.30;100.00
40940;BME280;26666;50.156;7.700;2022-10-13T00:19:49;101026.34;;;11.04;100.00
40940;BME280;26666;50.156;7.700;2022-10-13T00:24:51;101021.03;;;11.04;100.00
40940;BME280;26666;50.156;7.700;2022-10-13T00:29:53;101024.63;;;10.92;100.00
40940;BME280;26666;50.156;7.700;2022-10-13T00:34:54;101027.88;;;11.07;100.00
40940;BME280;26666;50.156;7.700;2022-10-13T00:39:56;101029.81;;;11.04;100.00
40940;BME280;26666;50.156;7.700;2022-10-13T00:50:07;101033.56;;;11.13;100.00
40940;BME280;26666;50.156;7.700;2022-10-13T00:55:11;101046.00;;;10.89;100.00
40940;BME280;26666;50.156;7.700;2022-10-13T01:00:13;101042.81;;;11.08;100.00
40940;BME280;26666;50.156;7.700;2022-10-13T01:05:16;101043.16;;;10.92;100.00
40940;BME280;26666;50.156;7.700;2022-10-13T01:10:31;101034.84;;;10.50;100.00
40940;BME280;26666;50.156;7.700;2022-10-13T01:15:49;101034.47;;;10.54;100.00
40940;BME280;26666;50.156;7.700;2022-10-13T01:37:10;101012.25;;;10.92;100.00
40940;BME280;26666;50.156;7.700;2022-10-13T01:42:28;101012.97;;;10.94;100.00
40940;BME280;26666;50.156;7.700;2022-10-13T01:47:32;101005.19;;;11.15;100.00
40940;BME280;26666;50.156;7.700;2022-10-13T01:52:37;100995.69;;;11.01;100.00
40940;BME280;26666;50.156;7.700;2022-10-13T01:57:41;100997.03;;;11.07;100.00
40940;BME280;26666;50.156;7.700;2022-10-13T02:13:03;100980.53;;;11.03;100.00
40940;BME280;26666;50.156;7.700;2022-10-13T02:18:06;100974.41;;;11.14;100.00
40940;BME280;26666;50.156;7.700;2022-10-13T02:23:11;100977.88;;;11.15;100.00
40940;BME280;26666;50.156;7.700;2022-10-13T02:28:13;100978.47;;;11.18;100.00
40940;BME280;26666;50.156;7.700;2022-10-13T02:33:15;100979.69;;;11.14;100.00
40940;BME280;26666;50.156;7.700;2022-10-13T02:38:17;100972.47;;;11.05;100.00
40940;BME280;26666;50.156;7.700;2022-10-13T02:43:18;100969.13;;;11.14;100.00
40940;BME280;26666;50.156;7.700;2022-10-13T02:48:19;100952.06;;;11.07;100.00
40940;BME280;26666;50.156;7.700;2022-10-13T02:53:21;100947.94;;;11.03;100.00
40940;BME280;26666;50.156;7.700;2022-10-13T02:58:22;100947.94;;;11.03;100.00
40940;BME280;26666;50.156;7.700;2022-10-13T03:03:23;100950.84;;;11.00;100.00
40940;BME280;26666;50.156;7.700;2022-10-13T03:08:25;100943.03;;;11.10;100.00
40940;BME280;26666;50.156;7.700;2022-10-13T03:13:27;100943.16;;;11.19;100.00
40940;BME280;26666;50.156;7.700;2022-10-13T03:18:28;100953.47;;;11.22;100.00
40940;BME280;26666;50.156;7.700;2022-10-13T03:23:30;100948.94;;;11.13;100.00
40940;BME280;26666;50.156;7.700;2022-10-13T03:28:31;100951.91;;;11.09;100.00
40940;BME280;26666;50.156;7.700;2022-10-13T03:33:33;100950.84;;;11.00;100.00
40940;BME280;26666;50.156;7.700;2022-10-13T03:38:34;100953.63;;;11.10;100.00
40940;BME280;26666;50.156;7.700;2022-10-13T03:43:36;100963.22;;;10.99;100.00
40940;BME280;26666;50.156;7.700;2022-10-13T03:48:37;100956.00;;;11.24;100.00
40940;BME280;26666;50.156;7.700;2022-10-13T03:53:39;100965.75;;;11.23;100.00
40940;BME280;26666;50.156;7.700;2022-10-13T03:58:40;100968.50;;;11.11;100.00
40940;BME280;26666;50.156;7.700;2022-10-13T04:03:41;100960.84;;;11.19;100.00
40940;BME280;26666;50.156;7.700;2022-10-13T04:08:43;100961.91;;;10.94;100.00
40940;BME280;26666;50.156;7.700;2022-10-13T04:13:44;100960.00;;;11.07;100.00
40940;BME280;26666;50.156;7.700;2022-10-13T04:18:50;100950.59;;;11.03;100.00
40940;BME280;26666;50.156;7.700;2022-10-13T04:23:59;100945.91;;;11.07;100.00
40940;BME280;26666;50.156;7.700;2022-10-13T04:29:02;100924.16;;;11.03;100.00
40940;BME280;26666;50.156;7.700;2022-10-13T04:34:04;100911.66;;;11.16;100.00
40940;BME280;26666;50.156;7.700;2022-10-13T04:39:06;100910.44;;;11.20;100.00
40940;BME280;26666;50.156;7.700;2022-10-13T04:44:07;100905.53;;;11.16;100.00
40940;BME280;26666;50.156;7.700;2022-10-13T04:49:08;100900.34;;;11.25;100.00
40940;BME280;26666;50.156;7.700;2022-10-13T04:54:10;100897.25;;;11.09;100.00
40940;BME280;26666;50.156;7.700;2022-10-13T04:59:11;100890.47;;;11.28;100.00
40940;BME280;26666;50.156;7.700;2022-10-13T05:04:13;100886.63;;;11.32;100.00
40940;BME280;26666;50.156;7.700;2022-10-13T05:09:14;100879.66;;;11.31;100.00
40940;BME280;26666;50.156;7.700;2022-10-13T05:14:16;100871.50;;;11.11;100.00
40940;BME280;26666;50.156;7.700;2022-10-13T05:19:17;100868.81;;;11.22;100.00
40940;BME280;26666;50.156;7.700;2022-10-13T05:24:19;100880.13;;;11.36;100.00
40940;BME280;26666;50.156;7.700;2022-10-13T05:29:20;100887.94;;;11.15;100.00
40940;BME280;26666;50.156;7.700;2022-10-13T05:34:21;100878.22;;;11.27;100.00
40940;BME280;26666;50.156;7.700;2022-10-13T05:39:23;100880.13;;;11.24;100.00
40940;BME280;26666;50.156;7.700;2022-10-13T05:44:24;100884.97;;;11.19;100.00
40940;BME280;26666;50.156;7.700;2022-10-13T05:49:26;100883.31;;;11.07;100.00
40940;BME280;26666;50.156;7.700;2022-10-13T05:54:32;100891.94;;;11.09;100.00
40940;BME280;26666;50.156;7.700;2022-10-13T05:59:39;100887.00;;;11.16;100.00
40940;BME280;26666;50.156;7.700;2022-10-13T06:04:44;100884.97;;;11.19;100.00
40940;BME280;26666;50.156;7.700;2022-10-13T06:09:47;100874.59;;;11.39;100.00
40940;BME280;26666;50.156;7.700;2022-10-13T06:14:48;100870.97;;;11.40;100.00
40940;BME280;26666;50.156;7.700;2022-10-13T06:19:50;100868.50;;;11.16;100.00
40940;BME280;26666;50.156;7.700;2022-10-13T06:24:51;100870.84;;;11.30;100.00
40940;BME280;26666;50.156;7.700;2022-10-13T06:29:53;100870.72;;;11.43;100.00
40940;BME280;26666;50.156;7.700;2022-10-13T06:34:54;100875.59;;;11.27;100.00
40940;BME280;26666;50.156;7.700;2022-10-13T06:39:56;100871.44;;;11.45;100.00
40940;BME280;26666;50.156;7.700;2022-10-13T06:44:57;100863.50;;;11.45;100.00
40940;BME280;26666;50.156;7.700;2022-10-13T06:49:59;100866.84;;;11.47;100.00
40940;BME280;26666;50.156;7.700;2022-10-13T06:55:00;100866.16;;;11.45;100.00
40940;BME280;26666;50.156;7.700;2022-10-13T07:00:03;100851.78;;;11.59;100.00
40940;BME280;26666;50.156;7.700;2022-10-13T07:05:04;100837.84;;;11.57;100.00
40940;BME280;26666;50.156;7.700;2022-10-13T07:10:06;100845.47;;;11.50;100.00
40940;BME280;26666;50.156;7.700;2022-10-13T07:15:08;100844.03;;;11.46;100.00
40940;BME280;26666;50.156;7.700;2022-10-13T07:20:10;100833.53;;;11.56;100.00
40940;BME280;26666;50.156;7.700;2022-10-13T07:25:11;100834.69;;;11.63;100.00
40940;BME280;26666;50.156;7.700;2022-10-13T07:30:13;100831.75;;;11.77;100.00
40940;BME280;26666;50.156;7.700;2022-10-13T07:35:15;100846.34;;;11.72;100.00
40940;BME280;26666;50.156;7.700;2022-10-13T07:40:16;100849.22;;;11.69;100.00
40940;BME280;26666;50.156;7.700;2022-10-13T07:45:18;100841.09;;;11.60;100.00
40940;BME280;26666;50.156;7.700;2022-10-13T07:50:19;100838.78;;;11.88;100.00
40940;BME280;26666;50.156;7.700;2022-10-13T07:55:21;100828.19;;;11.88;100.00
40940;BME280;26666;50.156;7.700;2022-10-13T08:00:22;100844.78;;;12.01;100.00
40940;BME280;26666;50.156;7.700;2022-10-13T08:05:23;100844.47;;;11.95;100.00
40940;BME280;26666;50.156;7.700;2022-10-13T08:10:25;100835.81;;;11.93;100.00
40940;BME280;26666;50.156;7.700;2022-10-13T08:15:26;100846.13;;;11.96;100.00
40940;BME280;26666;50.156;7.700;2022-10-13T08:20:28;100846.06;;;12.07;100.00
40940;BME280;26666;50.156;7.700;2022-10-13T08:25:44;100843.31;;;12.09;100.00
40940;BME280;26666;50.156;7.700;2022-10-13T08:30:46;100849.09;;;12.23;100.00
40940;BME280;26666;50.156;7.700;2022-10-13T08:35:47;100844.91;;;12.21;100.00
40940;BME280;26666;50.156;7.700;2022-10-13T08:40:49;100843.81;;;12.23;100.00
40940;BME280;26666;50.156;7.700;2022-10-13T08:46:03;100842.38;;;12.19;100.00
40940;BME280;26666;50.156;7.700;2022-10-13T08:51:05;100842.50;;;12.18;100.00
40940;BME280;26666;50.156;7.700;2022-10-13T09:01:20;100837.78;;;12.00;100.00
40940;BME280;26666;50.156;7.700;2022-10-13T09:11:38;100841.50;;;12.09;100.00
40940;BME280;26666;50.156;7.700;2022-10-13T09:16:43;100833.66;;;12.08;100.00
40940;BME280;26666;50.156;7.700;2022-10-13T09:21:46;100836.88;;;11.90;100.00
40940;BME280;26666;50.156;7.700;2022-10-13T09:26:49;100825.41;;;12.22;100.00
40940;BME280;26666;50.156;7.700;2022-10-13T09:32:27;100807.88;;;12.31;100.00
40940;BME280;26666;50.156;7.700;2022-10-13T09:37:35;100817.56;;;12.41;100.00
40940;BME280;26666;50.156;7.700;2022-10-13T09:42:37;100802.91;;;12.47;100.00
40940;BME280;26666;50.156;7.700;2022-10-13T09:47:38;100784.13;;;12.50;100.00
40940;BME280;26666;50.156;7.700;2022-10-13T09:52:40;100795.91;;;12.36;100.00
40940;BME280;26666;50.156;7.700;2022-10-13T09:57:47;100808.63;;;12.42;100.00
40940;BME280;26666;50.156;7.700;2022-10-13T10:08:25;100789.59;;;12.58;100.00
40940;BME280;26666;50.156;7.700;2022-10-13T10:13:44;100790.56;;;12.57;100.00
40940;BME280;26666;50.156;7.700;2022-10-13T10:29:49;100785.56;;;12.64;100.00
40940;BME280;26666;50.156;7.700;2022-10-13T10:45:17;100767.84;;;12.74;100.00
40940;BME280;26666;50.156;7.700;2022-10-13T10:50:19;100765.22;;;12.84;100.00
40940;BME280;26666;50.156;7.700;2022-10-13T11:00:50;100739.97;;;12.90;100.00
40940;BME280;26666;50.156;7.700;2022-10-13T11:05:59;100727.03;;;12.96;100.00
40940;BME280;26666;50.156;7.700;2022-10-13T11:26:52;100712.94;;;13.25;100.00
40940;BME280;26666;50.156;7.700;2022-10-13T11:31:54;100710.16;;;13.36;100.00
40940;BME280;26666;50.156;7.700;2022-10-13T11:36:57;100703.75;;;13.39;100.00
40940;BME280;26666;50.156;7.700;2022-10-13T11:42:21;100695.78;;;13.39;100.00
40940;BME280;26666;50.156;7.700;2022-10-13T11:58:28;100666.28;;;13.42;100.00
40940;BME280;26666;50.156;7.700;2022-10-13T12:03:32;100650.63;;;13.58;100.00
40940;BME280;26666;50.156;7.700;2022-10-13T12:08:35;100658.06;;;13.45;100.00
40940;BME280;26666;50.156;7.700;2022-10-13T12:13:37;100659.59;;;13.48;100.00
40940;BME280;26666;50.156;7.700;2022-10-13T12:18:39;100658.75;;;13.57;100.00
40940;BME280;26666;50.156;7.700;2022-10-13T12:23:41;100657.34;;;13.63;100.00
40940;BME280;26666;50.156;7.700;2022-10-13T12:28:58;100642.13;;;13.55;100.00
40940;BME280;26666;50.156;7.700;2022-10-13T12:34:01;100633.00;;;13.67;100.00
40940;BME280;26666;50.156;7.700;2022-10-13T12:39:06;100628.66;;;13.76;100.00
40940;BME280;26666;50.156;7.700;2022-10-13T12:44:13;100616.97;;;13.87;100.00
40940;BME280;26666;50.156;7.700;2022-10-13T12:49:25;100627.56;;;13.96;100.00
40940;BME280;26666;50.156;7.700;2022-10-13T12:54:32;100633.59;;;13.89;100.00
40940;BME280;26666;50.156;7.700;2022-10-13T12:59:40;100623.81;;;13.99;100.00
40940;BME280;26666;50.156;7.700;2022-10-13T13:04:43;100615.28;;;13.95;100.00
40940;BME280;26666;50.156;7.700;2022-10-13T13:09:58;100622.34;;;13.77;100.00
40940;BME280;26666;50.156;7.700;2022-10-13T13:20:32;100613.41;;;13.78;100.00
40940;BME280;26666;50.156;7.700;2022-10-13T13:25:34;100610.44;;;13.81;100.00
40940;BME280;26666;50.156;7.700;2022-10-13T13:30:35;100605.75;;;13.93;100.00
40940;BME280;26666;50.156;7.700;2022-10-13T13:35:37;100608.31;;;13.85;100.00
40940;BME280;26666;50.156;7.700;2022-10-13T13:40:38;100608.88;;;13.88;100.00
40940;BME280;26666;50.156;7.700;2022-10-13T13:45:40;100608.31;;;13.85;100.00
40940;BME280;26666;50.156;7.700;2022-10-13T13:50:41;100605.81;;;13.83;100.00
40940;BME280;26666;50.156;7.700;2022-10-13T13:55:43;100602.88;;;13.86;100.00
40940;BME280;26666;50.156;7.700;2022-10-13T14:00:46;100604.56;;;13.77;100.00
40940;BME280;26666;50.156;7.700;2022-10-13T14:05:49;100593.03;;;13.96;100.00
40940;BME280;26666;50.156;7.700;2022-10-13T14:10:50;100590.91;;;14.00;100.00
40940;BME280;26666;50.156;7.700;2022-10-13T14:15:59;100589.53;;;13.96;100.00
40940;BME280;26666;50.156;7.700;2022-10-13T14:21:05;100582.59;;;13.85;100.00
40940;BME280;26666;50.156;7.700;2022-10-13T14:26:07;100585.81;;;13.89;100.00
40940;BME280;26666;50.156;7.700;2022-10-13T14:31:08;100582.03;;;13.91;100.00
40940;BME280;26666;50.156;7.700;2022-10-13T14:36:10;100576.78;;;13.82;100.00
40940;BME280;26666;50.156;7.700;2022-10-13T14:41:11;100573.38;;;13.89;100.00
40940;BME280;26666;50.156;7.700;2022-10-13T14:46:12;100570.31;;;13.84;100.00
40940;BME280;26666;50.156;7.700;2022-10-13T14:51:14;100562.81;;;13.79;100.00
40940;BME280;26666;50.156;7.700;2022-10-13T14:56:21;100563.88;;;13.87;100.00
40940;BME280;26666;50.156;7.700;2022-10-13T15:01:23;100557.31;;;13.81;100.00
40940;BME280;26666;50.156;7.700;2022-10-13T15:06:25;100565.88;;;13.75;100.00
40940;BME280;26666;50.156;7.700;2022-10-13T15:11:26;100573.84;;;13.75;100.00
40940;BME280;26666;50.156;7.700;2022-10-13T15:16:29;100580.72;;;13.68;100.00
40940;BME280;26666;50.156;7.700;2022-10-13T15:21:31;100585.78;;;13.61;100.00
40940;BME280;26666;50.156;7.700;2022-10-13T15:26:32;100594.47;;;13.53;100.00
40940;BME280;26666;50.156;7.700;2022-10-13T15:31:34;100585.25;;;13.48;100.00
40940;BME280;26666;50.156;7.700;2022-10-13T15:36:35;100581.63;;;13.49;100.00
40940;BME280;26666;50.156;7.700;2022-10-13T15:41:36;100578.13;;;13.48;100.00
40940;BME280;26666;50.156;7.700;2022-10-13T15:46:38;100583.03;;;13.53;100.00
40940;BME280;26666;50.156;7.700;2022-10-13T15:51:59;100582.47;;;13.49;100.00
40940;BME280;26666;50.156;7.700;2022-10-13T15:57:01;100584.44;;;13.47;100.00
40940;BME280;26666;50.156;7.700;2022-10-13T16:02:02;100583.44;;;13.48;100.00
40940;BME280;26666;50.156;7.700;2022-10-13T16:07:03;100587.63;;;13.51;100.00
40940;BME280;26666;50.156;7.700;2022-10-13T16:12:05;100585.00;;;13.41;100.00
40940;BME280;26666;50.156;7.700;2022-10-13T16:17:06;100583.06;;;13.43;100.00
40940;BME280;26666;50.156;7.700;2022-10-13T16:22:08;100579.91;;;13.57;100.00
40940;BME280;26666;50.156;7.700;2022-10-13T16:27:09;100580.75;;;13.58;100.00
40940;BME280;26666;50.156;7.700;2022-10-13T16:32:10;100575.19;;;13.51;100.00
40940;BME280;26666;50.156;7.700;2022-10-13T16:37:12;100583.03;;;13.53;100.00
40940;BME280;26666;50.156;7.700;2022-10-13T16:42:13;100579.13;;;13.47;100.00
40940;BME280;26666;50.156;7.700;2022-10-13T16:47:17;100579.91;;;13.57;100.00
40940;BME280;26666;50.156;7.700;2022-10-13T16:52:19;100579.13;;;13.47;100.00
40940;BME280;26666;50.156;7.700;2022-10-13T16:57:21;100580.38;;;13.53;100.00
40940;BME280;26666;50.156;7.700;2022-10-13T17:02:23;100578.28;;;13.47;100.00
40940;BME280;26666;50.156;7.700;2022-10-13T17:07:24;100574.41;;;13.41;100.00
40940;BME280;26666;50.156;7.700;2022-10-13T17:12:25;100581.66;;;13.39;100.00
40940;BME280;26666;50.156;7.700;2022-10-13T17:17:27;100567.97;;;13.44;100.00
40940;BME280;26666;50.156;7.700;2022-10-13T17:22:28;100570.03;;;13.50;100.00
40940;BME280;26666;50.156;7.700;2022-10-13T17:27:30;100572.44;;;13.43;100.00
40940;BME280;26666;50.156;7.700;2022-10-13T17:32:36;100579.41;;;13.44;100.00
40940;BME280;26666;50.156;7.700;2022-10-13T17:37:37;100582.91;;;13.45;100.00
40940;BME280;26666;50.156;7.700;2022-10-13T17:42:38;100585.41;;;13.46;100.00
40940;BME280;26666;50.156;7.700;2022-10-13T17:47:47;100588.59;;;13.50;100.00
40940;BME280;26666;50.156;7.700;2022-10-13T17:52:48;100588.06;;;13.46;100.00
40940;BME280;26666;50.156;7.700;2022-10-13T17:57:49;100582.19;;;13.52;100.00
40940;BME280;26666;50.156;7.700;2022-10-13T18:02:51;100584.41;;;13.57;100.00
40940;BME280;26666;50.156;7.700;2022-10-13T18:07:55;100588.91;;;13.47;100.00
40940;BME280;26666;50.156;7.700;2022-10-13T18:12:57;100584.56;;;13.46;100.00
40940;BME280;26666;50.156;7.700;2022-10-13T18:17:58;100587.50;;;13.52;100.00
40940;BME280;26666;50.156;7.700;2022-10-13T18:22:59;100583.28;;;13.50;100.00
40940;BME280;26666;50.156;7.700;2022-10-13T18:28:01;100583.84;;;13.53;100.00
40940;BME280;26666;50.156;7.700;2022-10-13T18:33:02;100585.13;;;13.49;100.00
40940;BME280;26666;50.156;7.700;2022-10-13T18:38:04;100587.19;;;13.55;100.00
40940;BME280;26666;50.156;7.700;2022-10-13T18:43:05;100581.47;;;13.50;100.00
40940;BME280;26666;50.156;7.700;2022-10-13T18:48:06;100594.44;;;13.63;100.00
40940;BME280;26666;50.156;7.700;2022-10-13T18:53:08;100595.03;;;13.57;100.00
40940;BME280;26666;50.156;7.700;2022-10-13T18:58:10;100602.84;;;13.58;100.00
40940;BME280;26666;50.156;7.700;2022-10-13T19:03:11;100595.72;;;13.59;100.00
40940;BME280;26666;50.156;7.700;2022-10-13T19:08:13;100584.63;;;13.64;100.00
40940;BME280;26666;50.156;7.700;2022-10-13T19:13:15;100584.00;;;13.42;100.00
40940;BME280;26666;50.156;7.700;2022-10-13T19:18:16;100588.06;;;13.46;100.00
40940;BME280;26666;50.156;7.700;2022-10-13T19:23:17;100590.53;;;13.57;100.00
40940;BME280;26666;50.156;7.700;2022-10-13T19:28:19;100591.22;;;13.59;100.00
40940;BME280;26666;50.156;7.700;2022-10-13T19:33:21;100588.88;;;13.56;100.00
40940;BME280;26666;50.156;7.700;2022-10-13T19:38:22;100596.94;;;13.65;100.00
40940;BME280;26666;50.156;7.700;2022-10-13T19:43:24;100597.94;;;13.54;100.00
40940;BME280;26666;50.156;7.700;2022-10-13T19:48:25;100604.63;;;13.58;100.00
40940;BME280;26666;50.156;7.700;2022-10-13T19:53:27;100604.13;;;13.54;100.00
40940;BME280;26666;50.156;7.700;2022-10-13T19:58:28;100607.16;;;13.59;100.00
40940;BME280;26666;50.156;7.700;2022-10-13T20:03:30;100607.03;;;13.61;100.00
40940;BME280;26666;50.156;7.700;2022-10-13T20:08:32;100602.53;;;13.61;100.00
40940;BME280;26666;50.156;7.700;2022-10-13T20:13:34;100601.59;;;13.53;100.00
40940;BME280;26666;50.156;7.700;2022-10-13T20:18:36;100605.66;;;13.47;100.00
40940;BME280;26666;50.156;7.700;2022-10-13T20:23:37;100603.28;;;13.44;100.00
40940;BME280;26666;50.156;7.700;2022-10-13T20:28:43;100595.66;;;13.31;100.00
40940;BME280;26666;50.156;7.700;2022-10-13T20:33:46;100590.31;;;13.41;100.00
40940;BME280;26666;50.156;7.700;2022-10-13T20:38:47;100599.91;;;13.52;100.00
40940;BME280;26666;50.156;7.700;2022-10-13T20:43:50;100601.28;;;13.56;100.00
40940;BME280;26666;50.156;7.700;2022-10-13T20:48:52;100603.25;;;13.54;100.00
40940;BME280;26666;50.156;7.700;2022-10-13T20:54:13;100599.06;;;13.61;100.00
40940;BME280;26666;50.156;7.700;2022-10-13T20:59:15;100606.19;;;13.60;100.00
40940;BME280;26666;50.156;7.700;2022-10-13T21:04:16;100615.13;;;13.59;100.00
40940;BME280;26666;50.156;7.700;2022-10-13T21:09:18;100607.16;;;13.59;100.00
40940;BME280;26666;50.156;7.700;2022-10-13T21:14:19;100608.97;;;13.59;100.00
40940;BME280;26666;50.156;7.700;2022-10-13T21:19:21;100616.84;;;13.51;100.00
40940;BME280;26666;50.156;7.700;2022-10-13T21:24:22;100612.34;;;13.51;100.00
40940;BME280;26666;50.156;7.700;2022-10-13T21:29:23;100609.69;;;13.61;100.00
40940;BME280;26666;50.156;7.700;2022-10-13T21:34:25;100601.97;;;13.58;100.00
40940;BME280;26666;50.156;7.700;2022-10-13T21:39:26;100615.47;;;13.47;100.00
40940;BME280;26666;50.156;7.700;2022-10-13T21:44:28;100606.81;;;13.45;100.00
40940;BME280;26666;50.156;7.700;2022-10-13T21:49:29;100608.16;;;13.58;100.00
40940;BME280;26666;50.156;7.700;2022-10-13T21:54:30;100606.47;;;13.57;100.00
40940;BME280;26666;50.156;7.700;2022-10-13T21:59:32;100611.19;;;13.64;100.00
40940;BME280;26666;50.156;7.700;2022-10-13T22:04:34;100607.03;;;13.61;100.00
40940;BME280;26666;50.156;7.700;2022-10-13T22:09:35;100594.66;;;13.22;100.00
40940;BME280;26666;50.156;7.700;2022-10-13T22:14:36;100599.22;;;13.50;100.00
40940;BME280;26666;50.156;7.700;2022-10-13T22:19:38;100594.59;;;13.52;100.00
40940;BME280;26666;50.156;7.700;2022-10-13T22:24:39;100602.28;;;13.55;100.00
40940;BME280;26666;50.156;7.700;2022-10-13T22:29:41;100602.16;;;13.56;100.00
40940;BME280;26666;50.156;7.700;2022-10-13T22:34:42;100600.59;;;13.54;100.00
40940;BME280;26666;50.156;7.700;2022-10-13T22:39:43;100598.09;;;13.62;100.00
40940;BME280;26666;50.156;7.700;2022-10-13T22:44:45;100593.88;;;13.59;100.00
40940;BME280;26666;50.156;7.700;2022-10-13T22:49:46;100587.88;;;13.57;100.00
40940;BME280;26666;50.156;7.700;2022-10-13T22:54:48;100583.56;;;13.56;100.00
40940;BME280;26666;50.156;7.700;2022-10-13T22:59:49;100582.44;;;13.59;100.00
40940;BME280;26666;50.156;7.700;2022-10-13T23:04:50;100588.34;;;13.53;100.00
40940;BME280;26666;50.156;7.700;2022-10-13T23:09:52;100582.28;;;13.60;100.00
40940;BME280;26666;50.156;7.700;2022-10-13T23:14:53;100578.94;;;13.58;100.00
40940;BME280;26666;50.156;7.700;2022-10-13T23:19:54;100575.16;;;13.61;100.00
40940;BME280;26666;50.156;7.700;2022-10-13T23:24:56;100579.81;;;13.49;100.00
40940;BME280;26666;50.156;7.700;2022-10-13T23:29:57;100566.41;;;13.51;100.00
40940;BME280;26666;50.156;7.700;2022-10-13T23:34:59;100566.81;;;13.46;100.00
40940;BME280;26666;50.156;7.700;2022-10-13T23:40:00;100568.75;;;13.54;100.00
40940;BME280;26666;50.156;7.700;2022-10-13T23:45:03;100563.03;;;13.58;100.00
40940;BME280;26666;50.156;7.700;2022-10-13T23:50:05;100568.16;;;13.60;100.00
40940;BME280;26666;50.156;7.700;2022-10-13T23:55:07;100569.16;;;13.59;100.00
